Time;durP1;ratioP1;P1;durP2;ratioP2;P2;SDS_P1;SDS_P2;PMS_P1;PMS_P2;Temp;Humidity;BMP_temperature;BMP_pressure;BME280_temperature;BME280_humidity;BME280_pressure;Samples;Min_cycle;Max_cycle;Signal;HPM_P1;HPM_P2
2023/03/18 00:01:27;;;;;;;3.88;2.40;;;16.80;61.40;;;;;;5096924;28;20055;-24
2023/03/18 00:03:53;;;;;;;3.83;2.70;;;16.80;61.40;;;;;;5096904;28;20064;-24
2023/03/18 00:06:20;;;;;;;2.83;2.33;;;16.70;61.40;;;;;;5096866;28;20170;-24
2023/03/18 00:08:47;;;;;;;3.45;2.60;;;16.70;61.40;;;;;;5097300;28;20392;-24
2023/03/18 00:11:15;;;;;;;3.58;2.40;;;16.80;61.40;;;;;;5096573;28;20081;-25
2023/03/18 00:13:42;;;;;;;3.30;2.42;;;16.70;61.40;;;;;;5096752;28;20063;-25
2023/03/18 00:16:10;;;;;;;5.80;2.63;;;16.80;61.50;;;;;;5095137;28;20047;-24
2023/03/18 00:18:37;;;;;;;3.25;2.60;;;16.70;61.50;;;;;;5096580;28;20028;-23
2023/03/18 00:21:04;;;;;;;4.97;2.85;;;16.70;61.50;;;;;;5096591;28;20034;-24
2023/03/18 00:23:31;;;;;;;4.05;2.80;;;16.70;61.50;;;;;;5096791;28;20425;-24
2023/03/18 00:25:59;;;;;;;3.40;2.63;;;16.70;61.50;;;;;;5096591;28;20099;-24
2023/03/18 00:28:26;;;;;;;5.00;2.85;;;16.70;61.50;;;;;;5097026;28;20479;-24
2023/03/18 00:30:54;;;;;;;5.95;3.05;;;16.70;61.50;;;;;;5096696;28;20074;-24
2023/03/18 00:33:20;;;;;;;4.63;2.50;;;16.70;61.50;;;;;;5096578;28;20058;-24
2023/03/18 00:35:47;;;;;;;4.13;2.58;;;16.60;61.50;;;;;;5096198;28;20016;-24
2023/03/18 00:38:19;;;;;;;4.35;2.72;;;16.70;61.50;;;;;;5096663;28;20138;-24
2023/03/18 00:41:00;;;;;;;3.47;2.65;;;16.60;61.60;;;;;;5096598;28;20028;-24
2023/03/18 00:43:28;;;;;;;4.40;2.90;;;16.60;61.60;;;;;;5096225;28;20582;-24
2023/03/18 00:45:57;;;;;;;3.42;2.63;;;16.60;61.60;;;;;;5095935;28;20028;-24
2023/03/18 00:48:24;;;;;;;4.05;2.83;;;16.60;61.60;;;;;;5096349;28;20025;-24
2023/03/18 00:50:50;;;;;;;2.85;2.40;;;16.60;61.60;;;;;;5095986;28;20025;-24
2023/03/18 00:53:17;;;;;;;3.22;2.40;;;16.60;61.60;;;;;;5095941;28;20062;-24
2023/03/18 00:55:44;;;;;;;3.60;2.70;;;16.60;61.70;;;;;;5095669;28;20063;-25
2023/03/18 00:58:11;;;;;;;4.13;2.75;;;16.60;61.70;;;;;;5095799;28;20487;-24
2023/03/18 01:00:40;;;;;;;4.55;2.63;;;16.60;61.70;;;;;;5094938;28;20462;-24
2023/03/18 01:03:07;;;;;;;3.17;2.63;;;16.60;61.70;;;;;;5095993;28;20099;-24
2023/03/18 01:05:34;;;;;;;5.03;2.72;;;16.60;61.70;;;;;;5095686;28;20088;-25
2023/03/18 01:08:01;;;;;;;8.20;3.15;;;16.60;61.70;;;;;;5095850;28;20088;-24
2023/03/18 01:10:29;;;;;;;3.15;2.60;;;16.50;61.70;;;;;;5095638;28;20039;-24
2023/03/18 01:12:59;;;;;;;3.90;2.83;;;16.60;61.80;;;;;;5095991;28;20032;-24
2023/03/18 01:15:25;;;;;;;4.50;3.05;;;16.60;61.80;;;;;;5095486;28;20102;-24
2023/03/18 01:17:55;;;;;;;3.35;2.80;;;16.60;61.80;;;;;;5095483;28;20051;-24
2023/03/18 01:20:22;;;;;;;4.40;3.28;;;16.50;61.80;;;;;;5095423;28;20028;-24
2023/03/18 01:22:49;;;;;;;4.78;2.97;;;16.50;61.80;;;;;;5095669;28;20073;-24
2023/03/18 01:25:15;;;;;;;3.92;2.95;;;16.50;61.80;;;;;;5095403;28;20031;-24
2023/03/18 01:27:42;;;;;;;3.10;2.78;;;16.50;61.80;;;;;;5095308;28;20082;-24
2023/03/18 01:30:08;;;;;;;4.18;2.92;;;16.50;61.80;;;;;;5095193;28;20020;-24
2023/03/18 01:32:35;;;;;;;4.93;3.25;;;16.50;61.90;;;;;;5095066;28;20101;-24
2023/03/18 01:35:01;;;;;;;4.03;2.90;;;16.50;61.90;;;;;;5095382;28;20369;-24
2023/03/18 01:37:27;;;;;;;5.20;3.10;;;16.50;61.90;;;;;;5095311;28;20032;-23
2023/03/18 01:39:57;;;;;;;4.32;2.90;;;16.50;61.90;;;;;;5095133;28;20474;-24
2023/03/18 01:42:23;;;;;;;3.83;2.97;;;16.50;61.90;;;;;;5094443;28;20028;-24
2023/03/18 01:44:49;;;;;;;3.15;2.80;;;16.40;61.90;;;;;;5094941;28;20122;-24
2023/03/18 01:47:17;;;;;;;4.57;2.95;;;16.40;61.90;;;;;;5095213;28;20020;-24
2023/03/18 01:49:49;;;;;;;3.88;2.97;;;16.50;62.00;;;;;;5094673;28;20495;-25
2023/03/18 01:52:17;;;;;;;4.35;3.17;;;16.40;62.00;;;;;;5094913;28;20475;-24
2023/03/18 01:54:56;;;;;;;5.43;3.30;;;16.40;62.00;;;;;;5095052;28;20082;-24
2023/03/18 01:57:23;;;;;;;4.85;3.25;;;16.40;62.00;;;;;;5095047;28;20114;-24
2023/03/18 01:59:52;;;;;;;4.65;3.17;;;16.40;62.00;;;;;;5094815;28;20055;-24
2023/03/18 02:02:19;;;;;;;4.28;3.17;;;16.40;62.00;;;;;;5095038;28;20020;-24
2023/03/18 02:04:52;;;;;;;4.43;3.00;;;16.40;62.10;;;;;;5094534;28;20507;-24
2023/03/18 02:07:24;;;;;;;5.07;3.40;;;16.40;62.00;;;;;;5094622;28;20028;-24
2023/03/18 02:09:51;;;;;;;5.25;3.42;;;16.40;62.10;;;;;;5094657;28;20024;-24
2023/03/18 02:12:39;;;;;;;5.22;3.38;;;16.40;62.10;;;;;;5094372;28;20052;-24
2023/03/18 02:15:10;;;;;;;6.00;3.53;;;16.40;62.10;;;;;;5094456;28;20095;-24
2023/03/18 02:17:46;;;;;;;4.80;3.40;;;16.40;62.10;;;;;;5094114;28;20051;-24
2023/03/18 02:20:33;;;;;;;5.85;3.50;;;16.40;62.00;;;;;;5094326;28;20045;-25
2023/03/18 02:23:40;;;;;;;3.88;3.03;;;16.40;62.00;;;;;;5094598;28;20028;-24
2023/03/18 02:26:23;;;;;;;4.85;3.20;;;16.40;62.10;;;;;;5079473;28;20028;-24
2023/03/18 02:28:51;;;;;;;4.78;3.33;;;16.30;62.10;;;;;;5094126;28;20040;-24
2023/03/18 02:31:18;;;;;;;4.70;3.35;;;16.40;62.10;;;;;;5094355;28;20028;-24
2023/03/18 02:33:45;;;;;;;4.85;3.58;;;16.30;62.10;;;;;;5093705;28;20487;-24
2023/03/18 02:36:20;;;;;;;4.70;3.38;;;16.30;62.10;;;;;;5093870;28;20089;-24
2023/03/18 02:38:47;;;;;;;4.18;3.15;;;16.30;62.10;;;;;;5094790;28;20020;-23
2023/03/18 02:41:18;;;;;;;5.13;3.53;;;16.30;62.10;;;;;;5092666;28;20035;-24
2023/03/18 02:43:45;;;;;;;3.40;3.05;;;16.30;62.20;;;;;;5093711;28;20102;-25
2023/03/18 02:46:25;;;;;;;4.97;3.40;;;16.30;62.20;;;;;;5093805;28;20032;-24
2023/03/18 02:48:52;;;;;;;5.50;3.30;;;16.30;62.20;;;;;;5093963;28;20020;-24
2023/03/18 02:51:19;;;;;;;4.38;3.35;;;16.30;62.20;;;;;;5092420;28;20510;-24
2023/03/18 02:53:47;;;;;;;4.50;3.40;;;16.30;62.30;;;;;;5093757;28;20024;-24
2023/03/18 02:56:13;;;;;;;4.72;3.20;;;16.30;62.30;;;;;;5093770;28;20043;-24
2023/03/18 02:58:40;;;;;;;4.40;3.05;;;16.30;62.30;;;;;;5094006;28;20062;-24
2023/03/18 03:01:07;;;;;;;5.00;3.55;;;16.20;62.30;;;;;;5092411;28;20078;-24
2023/03/18 03:03:34;;;;;;;5.90;3.60;;;16.20;62.30;;;;;;5093444;28;20032;-24
2023/03/18 03:06:00;;;;;;;5.00;3.70;;;16.30;62.30;;;;;;5093314;28;20552;-24
2023/03/18 03:08:28;;;;;;;4.85;3.60;;;16.20;62.30;;;;;;5093446;28;20024;-24
2023/03/18 03:10:54;;;;;;;5.38;3.35;;;16.20;62.30;;;;;;5093818;28;20029;-24
2023/03/18 03:13:21;;;;;;;4.32;3.70;;;16.20;62.40;;;;;;5093330;28;20024;-24
2023/03/18 03:15:48;;;;;;;6.90;3.83;;;16.20;62.30;;;;;;5092974;28;20050;-24
2023/03/18 03:18:15;;;;;;;6.30;3.80;;;16.20;62.30;;;;;;5093205;28;20563;-24
2023/03/18 03:20:42;;;;;;;5.95;3.88;;;16.20;62.30;;;;;;5093760;28;20422;-24
2023/03/18 03:23:12;;;;;;;5.68;3.70;;;16.20;62.30;;;;;;5093512;28;20036;-24
2023/03/18 03:25:38;;;;;;;5.15;3.50;;;16.20;62.40;;;;;;5093598;28;20020;-24
2023/03/18 03:28:07;;;;;;;5.40;3.60;;;16.20;62.40;;;;;;5093281;28;20065;-24
2023/03/18 03:30:34;;;;;;;5.85;3.75;;;16.20;62.40;;;;;;5093174;28;20021;-24
2023/03/18 03:33:01;;;;;;;5.75;3.95;;;16.20;62.40;;;;;;5093419;28;20069;-24
2023/03/18 03:35:27;;;;;;;5.13;3.25;;;16.10;62.40;;;;;;5093464;28;20453;-24
2023/03/18 03:37:53;;;;;;;4.68;3.40;;;16.10;62.40;;;;;;5092951;28;20070;-24
2023/03/18 03:40:19;;;;;;;4.50;3.30;;;16.10;62.50;;;;;;5093432;28;20028;-24
2023/03/18 03:42:47;;;;;;;4.78;3.45;;;16.10;62.50;;;;;;5093111;28;20024;-24
2023/03/18 03:45:15;;;;;;;4.78;3.72;;;16.10;62.50;;;;;;5093360;28;20035;-24
2023/03/18 03:47:42;;;;;;;5.40;3.75;;;16.10;62.50;;;;;;5093024;28;20424;-24
2023/03/18 03:50:10;;;;;;;4.35;3.50;;;16.10;62.50;;;;;;5093026;28;20499;-24
2023/03/18 03:52:37;;;;;;;4.95;3.67;;;16.10;62.50;;;;;;5092961;28;20483;-24
2023/03/18 03:55:06;;;;;;;5.68;3.72;;;16.10;62.50;;;;;;5092969;28;20403;-24
2023/03/18 03:57:32;;;;;;;6.47;4.20;;;16.10;62.50;;;;;;5093148;28;20043;-24
2023/03/18 03:59:59;;;;;;;5.57;3.85;;;16.10;62.50;;;;;;5092709;28;20475;-24
2023/03/18 04:02:26;;;;;;;5.32;3.70;;;16.10;62.50;;;;;;5093234;28;20031;-24
2023/03/18 04:04:52;;;;;;;5.88;3.50;;;16.10;62.50;;;;;;5093137;28;20032;-24
2023/03/18 04:07:19;;;;;;;5.47;3.25;;;16.10;62.50;;;;;;5093020;28;20070;-24
2023/03/18 04:09:45;;;;;;;6.07;3.78;;;16.00;62.50;;;;;;5092591;28;20487;-24
2023/03/18 04:12:12;;;;;;;4.70;3.55;;;16.00;62.60;;;;;;5093135;28;20110;-25
2023/03/18 04:14:38;;;;;;;5.38;3.80;;;16.00;62.60;;;;;;5092795;28;20525;-24
2023/03/18 04:17:04;;;;;;;4.85;3.72;;;16.00;62.60;;;;;;5092653;28;20553;-24
2023/03/18 04:19:30;;;;;;;5.43;3.40;;;16.00;62.70;;;;;;5092627;28;20035;-23
2023/03/18 04:21:56;;;;;;;5.05;3.50;;;16.00;62.70;;;;;;5092569;28;20032;-24
2023/03/18 04:24:22;;;;;;;6.15;3.70;;;16.00;62.70;;;;;;5093021;28;20124;-24
2023/03/18 04:26:49;;;;;;;5.95;3.83;;;16.00;62.70;;;;;;5092986;28;20017;-24
2023/03/18 04:29:15;;;;;;;4.53;3.53;;;16.00;62.70;;;;;;5092685;28;20056;-24
2023/03/18 04:31:41;;;;;;;5.80;3.50;;;16.00;62.70;;;;;;5092653;28;20028;-24
2023/03/18 04:34:08;;;;;;;6.05;4.00;;;15.90;62.80;;;;;;5092627;28;20027;-23
2023/03/18 04:36:35;;;;;;;6.38;3.80;;;16.00;62.80;;;;;;5095005;28;20040;-24
2023/03/18 04:39:01;;;;;;;6.10;3.80;;;16.00;62.80;;;;;;5096260;28;20028;-24
2023/03/18 04:41:27;;;;;;;5.15;3.80;;;15.90;62.80;;;;;;5096440;28;20020;-23
2023/03/18 04:43:53;;;;;;;6.07;3.90;;;16.00;62.80;;;;;;5095918;28;20028;-24
2023/03/18 04:46:19;;;;;;;5.18;3.72;;;15.90;62.80;;;;;;5094923;28;20026;-25
2023/03/18 04:48:48;;;;;;;4.97;3.70;;;15.90;62.80;;;;;;5096446;28;20043;-24
2023/03/18 04:51:14;;;;;;;7.05;3.92;;;15.90;62.80;;;;;;5095997;28;20028;-24
2023/03/18 04:53:40;;;;;;;5.65;3.72;;;15.90;62.80;;;;;;5096302;28;20028;-24
2023/03/18 04:56:07;;;;;;;6.15;3.92;;;16.00;62.90;;;;;;5095588;28;20028;-24
2023/03/18 04:58:33;;;;;;;6.60;4.10;;;15.90;62.90;;;;;;5095933;28;20028;-24
2023/03/18 05:00:59;;;;;;;6.32;3.80;;;15.90;62.90;;;;;;5096041;28;20028;-24
2023/03/18 05:03:25;;;;;;;5.13;3.58;;;15.90;62.90;;;;;;5096061;28;20058;-24
2023/03/18 05:05:54;;;;;;;5.38;3.88;;;15.90;62.90;;;;;;5095471;28;20028;-24
2023/03/18 05:08:20;;;;;;;5.93;3.95;;;15.90;63.00;;;;;;5094299;28;20043;-24
2023/03/18 05:10:46;;;;;;;5.88;3.70;;;15.90;63.00;;;;;;5095932;28;20020;-24
2023/03/18 05:13:12;;;;;;;5.82;4.00;;;15.90;63.00;;;;;;5095606;28;20055;-24
2023/03/18 05:15:38;;;;;;;5.72;3.97;;;15.90;63.00;;;;;;5094197;28;20048;-24
2023/03/18 05:18:04;;;;;;;5.35;3.63;;;15.90;63.00;;;;;;5095199;28;20032;-24
2023/03/18 05:20:33;;;;;;;5.85;3.83;;;15.90;63.00;;;;;;5095476;28;20077;-24
2023/03/18 05:22:59;;;;;;;4.55;3.40;;;15.90;63.00;;;;;;5095428;28;20021;-24
2023/03/18 05:25:25;;;;;;;5.80;3.67;;;15.90;63.00;;;;;;5095545;28;20024;-24
2023/03/18 05:27:51;;;;;;;5.38;3.83;;;15.90;63.00;;;;;;5095155;28;20016;-25
2023/03/18 05:30:17;;;;;;;6.43;4.00;;;15.90;63.00;;;;;;5095257;28;20464;-24
2023/03/18 05:32:44;;;;;;;5.43;4.10;;;15.90;63.00;;;;;;5095139;28;20194;-25
2023/03/18 05:35:10;;;;;;;5.22;3.97;;;15.90;63.00;;;;;;5095305;28;20020;-24
2023/03/18 05:37:36;;;;;;;5.63;4.05;;;15.90;63.00;;;;;;5095055;28;20039;-24
2023/03/18 05:40:03;;;;;;;6.53;3.97;;;15.90;63.10;;;;;;5095078;28;20024;-24
2023/03/18 05:42:29;;;;;;;5.78;4.10;;;15.90;63.00;;;;;;5095259;28;20434;-23
2023/03/18 05:44:56;;;;;;;5.28;3.45;;;15.90;63.00;;;;;;5095054;28;20028;-24
2023/03/18 05:47:22;;;;;;;5.63;4.10;;;15.90;62.90;;;;;;5094899;28;20418;-24
2023/03/18 05:49:48;;;;;;;6.13;3.83;;;16.00;62.90;;;;;;5094585;28;20039;-24
2023/03/18 05:52:16;;;;;;;5.95;4.18;;;16.00;62.80;;;;;;5095199;28;20110;-24
2023/03/18 05:54:42;;;;;;;6.13;3.88;;;16.10;62.70;;;;;;5094854;28;20024;-24
2023/03/18 05:57:08;;;;;;;5.47;4.10;;;16.10;62.60;;;;;;5094643;28;20055;-24
2023/03/18 05:59:35;;;;;;;5.55;3.80;;;16.20;62.50;;;;;;5094649;28;20024;-24
2023/03/18 06:02:01;;;;;;;5.00;3.88;;;16.30;62.30;;;;;;5094452;28;20069;-24
2023/03/18 06:04:28;;;;;;;4.70;3.38;;;16.40;62.10;;;;;;5094847;28;20082;-24
2023/03/18 06:06:54;;;;;;;4.80;3.53;;;16.40;62.00;;;;;;5094561;28;20120;-24
2023/03/18 06:09:21;;;;;;;5.95;4.00;;;16.50;61.90;;;;;;5094836;28;20016;-24
2023/03/18 06:11:47;;;;;;;5.72;3.70;;;16.60;61.80;;;;;;5094459;28;20035;-24
2023/03/18 06:14:14;;;;;;;5.90;4.00;;;16.60;61.70;;;;;;5094696;28;20056;-24
2023/03/18 06:16:40;;;;;;;4.65;3.58;;;16.60;61.70;;;;;;5094231;28;20144;-24
2023/03/18 06:19:07;;;;;;;4.88;3.47;;;16.60;61.60;;;;;;5094282;28;20154;-24
2023/03/18 06:21:33;;;;;;;5.40;3.53;;;16.60;61.60;;;;;;5094270;28;20484;-24
2023/03/18 06:24:00;;;;;;;5.18;3.90;;;16.70;61.60;;;;;;5094343;28;20114;-24
2023/03/18 06:26:26;;;;;;;7.38;4.22;;;16.70;61.50;;;;;;5094106;28;20103;-24
2023/03/18 06:28:53;;;;;;;5.03;3.75;;;16.80;61.40;;;;;;5094052;28;20101;-24
2023/03/18 06:31:20;;;;;;;5.05;3.80;;;16.80;61.30;;;;;;5093853;28;20020;-24
2023/03/18 06:33:46;;;;;;;5.70;3.70;;;16.90;61.20;;;;;;5093511;28;20052;-24
2023/03/18 06:36:15;;;;;;;6.10;4.15;;;16.90;61.00;;;;;;5094433;28;20111;-24
2023/03/18 06:38:41;;;;;;;4.45;3.75;;;16.90;60.90;;;;;;5093961;28;20043;-24
2023/03/18 06:41:07;;;;;;;4.80;3.42;;;16.90;60.80;;;;;;5093715;28;20027;-24
2023/03/18 06:43:34;;;;;;;7.50;4.10;;;17.00;60.80;;;;;;5094021;28;20067;-24
2023/03/18 06:46:00;;;;;;;5.03;3.60;;;17.00;60.70;;;;;;5093501;28;20099;-24
2023/03/18 06:48:27;;;;;;;5.30;3.75;;;17.10;60.70;;;;;;5093645;28;20028;-24
2023/03/18 06:50:53;;;;;;;4.22;3.50;;;17.10;60.60;;;;;;5093733;28;20043;-24
2023/03/18 06:53:19;;;;;;;6.30;3.92;;;17.10;60.50;;;;;;5093601;28;20024;-24
2023/03/18 06:55:45;;;;;;;4.57;3.60;;;17.10;60.50;;;;;;5093385;28;20032;-24
2023/03/18 06:58:11;;;;;;;6.35;4.05;;;17.10;60.50;;;;;;5093569;28;20028;-24
2023/03/18 07:00:40;;;;;;;6.63;4.15;;;17.10;60.50;;;;;;5092374;28;20031;-24
2023/03/18 07:03:06;;;;;;;7.55;4.00;;;17.10;60.40;;;;;;5093460;28;20548;-24
2023/03/18 07:05:32;;;;;;;7.22;4.43;;;17.10;60.40;;;;;;5093793;28;20028;-24
2023/03/18 07:07:58;;;;;;;6.57;4.53;;;17.10;60.30;;;;;;5093477;28;20016;-24
2023/03/18 07:10:26;;;;;;;7.38;4.05;;;17.10;60.30;;;;;;5093681;28;20054;-24
2023/03/18 07:12:53;;;;;;;6.38;4.18;;;17.00;60.20;;;;;;5093664;28;20032;-24
2023/03/18 07:15:21;;;;;;;6.65;4.40;;;17.10;60.20;;;;;;5093411;28;20031;-24
2023/03/18 07:17:49;;;;;;;5.95;3.95;;;17.10;60.20;;;;;;5092749;28;20044;-24
2023/03/18 07:20:16;;;;;;;7.10;4.10;;;17.10;60.20;;;;;;5093262;28;20043;-24
2023/03/18 07:22:44;;;;;;;6.60;4.43;;;17.10;60.30;;;;;;5093572;28;20024;-24
2023/03/18 07:25:10;;;;;;;6.65;4.28;;;17.00;60.20;;;;;;5093806;28;20395;-24
2023/03/18 07:27:37;;;;;;;12.07;5.10;;;17.00;60.20;;;;;;5093160;28;20023;-24
2023/03/18 07:30:03;;;;;;;7.18;4.75;;;17.00;60.20;;;;;;5093293;28;20036;-24
2023/03/18 07:32:29;;;;;;;11.13;5.00;;;17.00;60.20;;;;;;5093373;28;20043;-24
2023/03/18 07:34:56;;;;;;;7.47;4.82;;;17.00;60.20;;;;;;5092959;28;20032;-24
2023/03/18 07:37:22;;;;;;;9.45;5.35;;;17.00;60.10;;;;;;5092978;28;20480;-24
2023/03/18 07:39:49;;;;;;;6.78;4.60;;;17.00;60.10;;;;;;5092777;28;20032;-24
2023/03/18 07:42:15;;;;;;;9.75;4.82;;;17.10;60.10;;;;;;5093267;28;20486;-24
2023/03/18 07:44:41;;;;;;;8.50;5.90;;;17.20;60.00;;;;;;5092840;28;20134;-24
2023/03/18 07:47:06;;;;;;;7.57;5.20;;;17.20;59.90;;;;;;5091843;28;20070;-24
2023/03/18 07:49:32;;;;;;;9.35;6.00;;;17.20;59.80;;;;;;5092908;28;20032;-24
2023/03/18 07:51:58;;;;;;;9.80;6.70;;;17.20;59.70;;;;;;5092933;28;20031;-24
2023/03/18 07:54:25;;;;;;;9.75;6.22;;;17.10;59.70;;;;;;5093224;28;20040;-24
2023/03/18 07:56:52;;;;;;;11.00;6.47;;;17.10;59.60;;;;;;5092593;28;20119;-24
2023/03/18 07:59:18;;;;;;;14.63;9.25;;;17.10;59.60;;;;;;5092802;28;20040;-24
2023/03/18 08:01:44;;;;;;;15.38;10.88;;;17.00;59.50;;;;;;5092484;28;20032;-24
2023/03/18 08:04:10;;;;;;;13.77;10.35;;;17.00;59.50;;;;;;5092905;28;20104;-24
2023/03/18 08:06:36;;;;;;;15.48;10.80;;;17.00;59.40;;;;;;5092960;28;20027;-24
2023/03/18 08:09:03;;;;;;;18.80;13.02;;;16.90;59.40;;;;;;5093122;28;20020;-24
2023/03/18 08:11:29;;;;;;;16.70;13.23;;;16.90;59.40;;;;;;5096920;28;20036;-24
2023/03/18 08:13:55;;;;;;;18.42;13.65;;;16.90;59.40;;;;;;5096474;28;20524;-24
2023/03/18 08:16:21;;;;;;;18.45;15.13;;;16.90;59.40;;;;;;5096287;28;20388;-24
2023/03/18 08:18:47;;;;;;;21.88;15.05;;;16.90;59.50;;;;;;5096624;28;20028;-24
2023/03/18 08:21:14;;;;;;;18.88;14.25;;;16.80;59.50;;;;;;5096554;28;20036;-24
2023/03/18 08:23:40;;;;;;;18.33;14.90;;;16.80;59.50;;;;;;5096572;28;20047;-24
2023/03/18 08:26:06;;;;;;;18.33;15.75;;;16.80;59.50;;;;;;5096498;28;20119;-24
2023/03/18 08:28:33;;;;;;;23.50;18.05;;;16.80;59.50;;;;;;5096433;28;20032;-24
2023/03/18 08:30:59;;;;;;;20.17;16.80;;;16.80;59.50;;;;;;5096358;28;20054;-24
2023/03/18 08:33:26;;;;;;;20.42;16.45;;;16.80;59.50;;;;;;5096603;28;20063;-24
2023/03/18 08:35:56;;;;;;;18.17;15.70;;;16.80;59.50;;;;;;5096094;28;20077;-24
2023/03/18 08:38:24;;;;;;;20.05;17.48;;;16.80;59.60;;;;;;5096252;28;20043;-25
2023/03/18 08:40:50;;;;;;;20.38;17.38;;;16.80;59.60;;;;;;5096439;28;20032;-25
2023/03/18 08:43:16;;;;;;;20.13;16.70;;;16.90;59.50;;;;;;5096475;28;20036;-24
2023/03/18 08:45:43;;;;;;;18.98;16.38;;;16.90;59.50;;;;;;5096418;28;20036;-24
2023/03/18 08:48:09;;;;;;;21.88;16.58;;;16.90;59.50;;;;;;5096031;28;20388;-24
2023/03/18 08:50:35;;;;;;;20.60;17.38;;;16.90;59.40;;;;;;5096364;28;20028;-24
2023/03/18 08:53:03;;;;;;;21.20;17.02;;;17.00;59.30;;;;;;5096229;28;20024;-24
2023/03/18 08:55:36;;;;;;;19.25;16.73;;;17.00;59.30;;;;;;5096272;28;20137;-25
2023/03/18 08:58:05;;;;;;;19.35;17.20;;;17.00;59.30;;;;;;5095656;28;20028;-25
2023/03/18 09:00:33;;;;;;;20.38;17.50;;;17.00;59.20;;;;;;5096191;28;20119;-24
2023/03/18 09:03:00;;;;;;;18.58;16.60;;;17.10;59.20;;;;;;5096109;28;20051;-25
2023/03/18 09:05:26;;;;;;;19.67;16.55;;;17.10;59.20;;;;;;5095787;28;20040;-24
2023/03/18 09:07:52;;;;;;;18.70;16.65;;;17.10;59.10;;;;;;5095564;28;20484;-24
2023/03/18 09:10:20;;;;;;;19.00;16.13;;;17.20;59.10;;;;;;5094754;28;20020;-25
2023/03/18 09:12:46;;;;;;;19.77;17.65;;;17.20;59.10;;;;;;5095870;28;20032;-25
2023/03/18 09:15:14;;;;;;;19.60;16.55;;;17.20;59.10;;;;;;5095492;28;20119;-25
2023/03/18 09:17:41;;;;;;;18.38;15.73;;;17.20;59.10;;;;;;5095180;28;20044;-25
2023/03/18 09:20:10;;;;;;;18.33;16.20;;;17.30;59.00;;;;;;5095841;28;20402;-24
2023/03/18 09:22:38;;;;;;;19.00;16.15;;;17.30;59.00;;;;;;5094884;28;20080;-25
2023/03/18 09:25:05;;;;;;;17.73;15.82;;;17.30;58.90;;;;;;5095355;28;20028;-25
2023/03/18 09:27:31;;;;;;;19.98;16.30;;;17.40;58.90;;;;;;5095375;28;20020;-25
2023/03/18 09:29:58;;;;;;;17.08;14.45;;;17.30;59.00;;;;;;5095197;28;20051;-25
2023/03/18 09:32:24;;;;;;;18.45;16.33;;;17.30;59.00;;;;;;5094105;28;20020;-25
2023/03/18 09:34:52;;;;;;;17.63;15.73;;;17.30;59.00;;;;;;5095208;28;20126;-25
2023/03/18 09:37:18;;;;;;;18.50;14.68;;;17.40;59.00;;;;;;5095523;28;20035;-26
2023/03/18 09:39:46;;;;;;;17.20;14.93;;;17.40;59.00;;;;;;5094935;28;20077;-26
2023/03/18 09:42:39;;;;;;;18.00;15.00;;;17.40;59.00;;;;;;5095023;28;20048;-26
2023/03/18 09:45:21;;;;;;;17.85;14.75;;;17.40;58.90;;;;;;5094998;28;20529;-26
2023/03/18 09:48:35;;;;;;;19.13;14.52;;;17.40;59.00;;;;;;5095042;28;20110;-26
2023/03/18 09:51:19;;;;;;;17.50;13.70;;;17.40;59.00;;;;;;5095065;28;20051;-26
2023/03/18 09:53:57;;;;;;;16.92;13.43;;;17.40;59.00;;;;;;5094686;28;20051;-24
2023/03/18 09:56:28;;;;;;;15.93;13.48;;;17.50;58.90;;;;;;5094743;28;20119;-26
2023/03/18 09:59:02;;;;;;;17.95;14.02;;;17.40;58.90;;;;;;5094033;28;20056;-25
2023/03/18 10:01:33;;;;;;;18.63;13.20;;;17.50;58.80;;;;;;5094689;28;20029;-26
2023/03/18 10:04:03;;;;;;;16.05;12.65;;;17.50;58.70;;;;;;5094725;28;20088;-26
2023/03/18 10:06:30;;;;;;;15.60;12.52;;;17.50;58.70;;;;;;5093383;28;20082;-25
2023/03/18 10:09:08;;;;;;;18.38;13.27;;;17.50;58.60;;;;;;5094570;28;20032;-26
2023/03/18 10:11:38;;;;;;;14.88;12.27;;;17.50;58.60;;;;;;5094840;28;20107;-26
2023/03/18 10:14:31;;;;;;;14.40;11.50;;;17.50;58.50;;;;;;5094327;28;20468;-26
2023/03/18 10:17:15;;;;;;;15.93;11.15;;;17.50;58.10;;;;;;5094237;28;20051;-26
2023/03/18 10:19:57;;;;;;;14.32;11.52;;;17.50;58.10;;;;;;5094482;28;20099;-26
2023/03/18 10:22:39;;;;;;;14.55;10.98;;;17.60;58.10;;;;;;5094335;28;20063;-26
2023/03/18 10:25:13;;;;;;;14.98;11.43;;;17.50;58.00;;;;;;5094965;28;20032;-26
2023/03/18 10:27:56;;;;;;;13.55;10.40;;;17.60;57.80;;;;;;5094609;28;20031;-25
2023/03/18 10:30:42;;;;;;;13.68;10.05;;;17.60;57.70;;;;;;5094193;28;20557;-25
2023/03/18 10:33:45;;;;;;;13.68;10.48;;;17.60;57.50;;;;;;5093481;28;20016;-26
2023/03/18 10:36:27;;;;;;;12.20;10.13;;;17.60;57.20;;;;;;5094078;28;20483;-25
2023/03/18 10:38:55;;;;;;;12.80;10.30;;;17.60;57.50;;;;;;5094173;28;20039;-25
2023/03/18 10:41:32;;;;;;;14.27;10.55;;;17.60;57.60;;;;;;5094219;28;20528;-24
2023/03/18 10:44:21;;;;;;;13.73;11.07;;;17.60;57.60;;;;;;5093886;28;20020;-25
2023/03/18 10:46:56;;;;;;;12.65;9.52;;;17.60;57.60;;;;;;5093505;28;20024;-25
2023/03/18 10:49:34;;;;;;;11.50;9.88;;;17.60;57.50;;;;;;5092573;28;20067;-24
2023/03/18 10:52:32;;;;;;;12.73;10.05;;;17.60;57.60;;;;;;5093620;28;20495;-24
2023/03/18 10:54:58;;;;;;;21.65;10.57;;;17.70;57.70;;;;;;5093734;28;20571;-23
2023/03/18 10:57:24;;;;;;;11.60;9.35;;;17.60;57.70;;;;;;5093609;28;20115;-23
2023/03/18 10:59:50;;;;;;;13.65;9.93;;;17.60;57.80;;;;;;5093415;28;20507;-23
2023/03/18 11:02:33;;;;;;;12.43;9.15;;;17.60;57.80;;;;;;5093623;28;20028;-24
2023/03/18 11:05:23;;;;;;;11.43;8.90;;;17.60;57.60;;;;;;5092314;28;20058;-23
2023/03/18 11:07:59;;;;;;;14.00;10.27;;;17.70;57.50;;;;;;5093025;28;20376;-23
2023/03/18 11:10:31;;;;;;;12.60;9.35;;;17.60;57.50;;;;;;5093690;28;20568;-24
2023/03/18 11:13:05;;;;;;;12.00;9.15;;;17.60;57.70;;;;;;5093483;28;20032;-24
2023/03/18 11:15:42;;;;;;;12.07;9.10;;;17.60;57.70;;;;;;5093964;28;20028;-23
2023/03/18 11:18:18;;;;;;;11.82;9.18;;;17.60;57.50;;;;;;5093188;28;20402;-23
2023/03/18 11:20:46;;;;;;;11.10;9.02;;;17.60;57.50;;;;;;5093394;28;20020;-23
2023/03/18 11:23:19;;;;;;;11.40;8.48;;;17.60;57.50;;;;;;5093610;28;20032;-24
2023/03/18 11:25:47;;;;;;;13.13;9.73;;;17.60;57.40;;;;;;5093377;28;20077;-24
2023/03/18 11:28:28;;;;;;;12.85;9.70;;;17.70;57.50;;;;;;5093589;28;20021;-24
2023/03/18 11:30:57;;;;;;;12.20;10.20;;;17.60;57.60;;;;;;5093351;28;20020;-23
2023/03/18 11:33:25;;;;;;;14.70;11.40;;;17.60;57.80;;;;;;5093416;28;20082;-24
2023/03/18 11:35:53;;;;;;;14.68;10.90;;;17.60;58.10;;;;;;5093306;28;20028;-24
2023/03/18 11:38:23;;;;;;;14.10;10.52;;;17.60;58.10;;;;;;5093060;28;20547;-24
2023/03/18 11:40:49;;;;;;;15.05;11.05;;;17.60;57.90;;;;;;5093418;28;20021;-24
2023/03/18 11:43:20;;;;;;;16.02;11.25;;;17.60;57.90;;;;;;5093108;28;20049;-24
2023/03/18 11:45:56;;;;;;;13.75;11.02;;;17.60;58.10;;;;;;5095708;28;20502;-24
2023/03/18 11:48:34;;;;;;;16.35;11.77;;;17.60;58.20;;;;;;5097560;28;20027;-24
2023/03/18 11:51:25;;;;;;;14.77;11.32;;;17.60;58.30;;;;;;5097253;28;20032;-24
2023/03/18 11:54:00;;;;;;;14.85;11.25;;;17.60;58.40;;;;;;5097047;28;20539;-24
2023/03/18 11:56:33;;;;;;;14.95;11.23;;;17.60;58.40;;;;;;5095999;28;20383;-24
2023/03/18 11:59:31;;;;;;;;;;;17.60;58.30;;;;;;5097560;28;20081;-24
2023/03/18 12:02:00;;;;;;;15.00;11.23;;;17.60;58.50;;;;;;5084324;28;19904;-23
2023/03/18 12:04:48;;;;;;;14.90;11.35;;;17.60;58.60;;;;;;5096876;28;20027;-23
2023/03/18 12:07:50;;;;;;;13.70;10.95;;;17.60;58.80;;;;;;5097049;28;20455;-23
2023/03/18 12:10:45;;;;;;;15.18;11.50;;;17.60;58.70;;;;;;5096857;28;20035;-24
2023/03/18 12:13:46;;;;;;;14.40;11.20;;;17.60;58.50;;;;;;5097134;28;20059;-23
2023/03/18 12:16:35;;;;;;;16.38;11.95;;;17.60;58.50;;;;;;5096650;28;20032;-28
2023/03/18 12:19:28;;;;;;;13.52;10.13;;;17.60;58.40;;;;;;5096618;28;20058;-24
2023/03/18 12:22:03;;;;;;;14.90;11.32;;;17.60;58.40;;;;;;5096535;28;20020;-24
2023/03/18 12:24:41;;;;;;;14.27;11.15;;;17.50;58.60;;;;;;5096867;28;20114;-23
2023/03/18 12:27:38;;;;;;;13.80;11.18;;;17.50;59.00;;;;;;5096769;28;20020;-23
2023/03/18 12:30:54;;;;;;;11.63;10.23;;;17.60;59.00;;;;;;5096611;28;20060;-23
2023/03/18 12:33:41;;;;;;;14.57;11.48;;;17.60;59.00;;;;;;5078453;28;20044;-25
2023/03/18 12:36:17;;;;;;;14.55;10.48;;;17.50;58.90;;;;;;5096491;28;20028;-23
2023/03/18 12:38:55;;;;;;;12.35;10.43;;;17.60;59.00;;;;;;5096362;28;20068;-24
2023/03/18 12:41:40;;;;;;;15.65;11.20;;;17.50;59.30;;;;;;5095070;28;20020;-23
2023/03/18 12:44:25;;;;;;;14.32;11.52;;;17.50;59.40;;;;;;5096028;28;20028;-24
2023/03/18 12:47:00;;;;;;;14.73;11.48;;;17.50;59.20;;;;;;5096410;28;20539;-24
2023/03/18 12:49:34;;;;;;;15.80;11.60;;;17.50;59.20;;;;;;5096074;28;20060;-24
2023/03/18 12:52:19;;;;;;;16.70;12.23;;;17.50;59.20;;;;;;5095953;28;20031;-23
2023/03/18 12:55:06;;;;;;;14.02;11.02;;;17.50;59.40;;;;;;5096066;28;20474;-24
2023/03/18 12:57:53;;;;;;;14.48;10.80;;;17.50;59.40;;;;;;5094798;28;20391;-24